Terminal Aerodrome Forecast
Issued by NWS

Home | Current Version | Previous Version | Text Only | Print | Product List | Glossary On
Versions: 1 2 3 4 5 6 7 8 9 10 11 12
000
FTUS45 KSLC 252340
TAFPVU
TAF
KPVU 252340Z 2600/2624 14009KT P6SM SCT090 BKN200
     FM261100 32010G15KT P6SM SCT060 BKN080
     FM261800 32018G27KT P6SM SCT060 BKN080
      AMD LTD TO CLD VIS AND WIND=

USA.gov is the U.S. government's official web portal to all federal, state and local government web resources and services.